EW0362 Weather Reports


Display with metric or nautical units.
time (UTC)temp
F
wind
direction
speed
MPH
gust
MPH
rain 1hr
in
rain 24hr
in
rain mn
in
humidity
%
barometer
mb
20240223061204 36 184 0.0 2.0 0.00 0.01 0.00 88 1005.1
20240223060703 36 184 0.0 2.0 0.00 0.01 0.00 88 1005.2
20240223060204 36 184 0.0 1.0 0.00 0.01 0.00 88 1005.1
20240223055203 36 184 1.0 3.0 0.00 0.01 0.00 87 1005.2
20240223054704 36 194 0.0 1.0 0.00 0.01 0.00 87 1005.3
20240223053204 36 194 0.0 0.0 0.00 0.01 0.00 87 1005.5
20240223052703 35 194 0.0 1.0 0.00 0.01 0.00 87 1005.5
20240223052204 35 194 0.0 1.0 0.00 0.01 0.00 87 1005.5
20240223051204 35 184 0.0 2.0 0.00 0.01 0.00 87 1005.8
20240223050704 35 184 0.0 1.0 0.00 0.01 0.00 87 1005.8
20240223050203 35 184 0.0 0.0 0.00 0.01 0.00 87 1005.9
20240223044703 36 184 0.0 0.0 0.00 0.01 0.01 87 1006.1
20240223044204 36 184 0.0 0.0 0.00 0.01 0.01 86 1006.2
20240223043703 36 184 0.0 1.0 0.00 0.01 0.01 86 1006.4
20240223042703 36 184 0.0 0.0 0.00 0.01 0.01 86 1006.4
20240223041703 36 184 0.0 0.0 0.00 0.01 0.01 86 1006.4
20240223041204 36 184 0.0 0.0 0.00 0.01 0.01 86 1006.5
20240223040704 36 184 0.0 0.0 0.00 0.01 0.01 86 1006.5
20240223033204 36 184 1.0 3.0 0.00 0.01 0.01 85 1006.9
20240223032204 36 199 0.0 2.0 0.00 0.01 0.01 84 1007.0
20240223031703 36 199 1.0 1.0 0.00 0.01 0.01 84 1007.0
20240223031203 36 199 0.0 2.0 0.00 0.01 0.01 83 1006.8
20240223025704 36 199 0.0 1.0 0.00 0.01 0.01 81 1006.9
20240223024703 36 210 0.0 1.0 0.00 0.01 0.01 81 1007.0
20240223023704 35 212 0.0 2.0 0.00 0.01 0.01 82 1007.1
20240223022704 35 213 0.0 3.0 0.00 0.01 0.01 83 1007.3
20240223020704 34 220 0.0 0.0 0.00 0.01 0.01 84 1007.6
20240223015205 34 220 0.0 2.0 0.00 0.01 0.01 84 1007.6
20240223014203 34 263 0.0 0.0 0.00 0.01 0.01 83 1007.7
20240223011703 34 263 0.0 0.0 0.00 0.01 0.01 82 1007.8
20240223011204 34 263 0.0 0.0 0.00 0.01 0.01 82 1007.8
20240223010703 34 263 0.0 0.0 0.00 0.01 0.01 82 1007.9
20240223005204 34 263 0.0 0.0 0.00 0.01 0.01 81 1008.0
20240223004704 34 263 0.0 0.0 0.00 0.01 0.01 81 1008.0
20240223003703 34 263 0.0 0.0 0.00 0.01 0.01 81 1008.0
20240223002703 34 263 0.0 0.0 0.00 0.01 0.01 82 1008.2
20240222235204 35 263 0.0 0.0 0.00 0.01 0.01 80 1008.7
20240222233705 35 263 0.0 0.0 0.00 0.01 0.01 78 1008.7
20240222233205 36 263 0.0 0.0 0.00 0.01 0.01 77 1008.7
20240222232705 36 263 0.0 0.0 0.00 0.01 0.01 77 1008.8
20240222231206 36 263 0.0 0.0 0.00 0.01 0.01 76 1008.9
20240222225205 38 263 0.0 0.0 0.00 0.01 0.01 73 1008.9
20240222224705 38 263 0.0 0.0 0.00 0.01 0.01 73 1008.9
20240222224205 38 263 0.0 0.0 0.00 0.01 0.01 73 1008.9
20240222223705 38 263 0.0 0.0 0.00 0.01 0.01 73 1009.0
20240222223206 39 263 0.0 0.0 0.00 0.01 0.01 73 1009.0
20240222222205 39 263 0.0 0.0 0.00 0.01 0.01 71 1009.1
20240222220705 40 263 0.0 0.0 0.00 0.01 0.01 69 1009.2
20240222215705 40 263 0.0 0.0 0.00 0.01 0.01 68 1009.3
20240222215205 40 263 0.0 0.0 0.00 0.01 0.01 68 1009.4
20240222213205 41 263 0.0 1.0 0.00 0.01 0.01 66 1009.6
20240222212205 41 263 0.0 2.0 0.00 0.01 0.01 66 1009.7
20240222211205 41 263 1.0 3.0 0.00 0.01 0.01 65 1010.0
20240222210705 42 263 0.0 2.0 0.00 0.01 0.01 65 1010.1
20240222205205 42 230 1.0 3.0 0.00 0.01 0.01 65 1010.2
20240222204705 42 211 1.0 3.0 0.00 0.01 0.01 63 1010.2
20240222202205 43 216 2.0 3.0 0.00 0.01 0.01 63 1010.4
20240222201704 43 228 2.0 5.0 0.00 0.01 0.01 63 1010.5
20240222201204 43 278 2.0 3.0 0.00 0.01 0.01 64 1010.6
20240222200205 43 140 2.0 3.0 0.01 0.01 0.01 62 1010.8
20240222195205 43 255 2.0 5.0 0.01 0.01 0.01 63 1010.8
20240222194205 43 255 2.0 3.0 0.01 0.01 0.01 62 1011.1
20240222193705 43 215 2.0 3.0 0.01 0.01 0.01 62 1011.2
20240222193205 43 135 1.0 3.0 0.01 0.01 0.01 62 1011.1
20240222192705 44 176 2.0 3.0 0.01 0.01 0.01 61 1011.2
20240222190706 43 230 4.0 7.0 0.00 0.00 0.00 62 1011.5
20240222190205 43 271 1.0 3.0 0.00 0.00 0.00 63 1011.5
20240222185705 43 215 2.0 3.0 0.00 0.00 0.00 61 1011.5
20240222185205 43 198 4.0 7.0 0.00 0.00 0.00 61 1011.6
20240222184205 43 185 2.0 3.0 0.00 0.00 0.00 63 1011.9
20240222183205 42 263 1.0 3.0 0.00 0.00 0.00 63 1012.0
20240222182705 43 228 1.0 3.0 0.00 0.00 0.00 62 1012.2
20240222181705 42 212 1.0 3.0 0.00 0.00 0.00 64 1012.3
20240222181205 42 212 0.0 2.0 0.00 0.01 0.00 64 1012.4
20240222180705 42 238 0.0 3.0 0.00 0.01 0.00 64 1012.4
20240222175205 41 139 2.0 6.0 0.00 0.01 0.00 64 1012.7
20240222174205 41 156 0.0 2.0 0.00 0.01 0.00 65 1012.9
20240222173204 40 139 2.0 5.0 0.00 0.01 0.00 67 1013.4
20240222172706 40 184 2.0 3.0 0.00 0.01 0.00 66 1013.7
20240222171205 39 192 3.0 6.0 0.00 0.01 0.00 68 1014.3
20240222170705 39 137 3.0 7.0 0.00 0.01 0.00 67 1014.3
20240222165705 39 196 2.0 3.0 0.00 0.01 0.00 68 1014.3
20240222164705 39 141 2.0 5.0 0.00 0.01 0.00 68 1014.7
20240222163705 38 191 3.0 7.0 0.00 0.01 0.00 69 1014.9
20240222163205 38 294 1.0 3.0 0.00 0.01 0.00 69 1015.3
20240222160707 37 187 2.0 6.0 0.00 0.01 0.00 71 1015.9
20240222160205 37 222 2.0 3.0 0.00 0.01 0.00 70 1015.9
20240222153205 37 178 3.0 8.0 0.00 0.01 0.00 71 1016.5
20240222152706 36 126 2.0 3.0 0.00 0.01 0.00 71 1016.8
20240222152205 36 189 2.0 7.0 0.00 0.01 0.00 72 1016.8
20240222150204 35 147 3.0 6.0 0.00 0.01 0.00 73 1017.1
20240222145206 35 184 1.0 3.0 0.00 0.01 0.00 74 1017.3
20240222144705 35 161 1.0 5.0 0.00 0.01 0.00 74 1017.6
20240222144206 35 142 1.0 5.0 0.00 0.01 0.00 75 1017.6
20240222143204 34 192 2.0 5.0 0.00 0.01 0.00 76 1017.9
20240222142705 34 333 1.0 3.0 0.00 0.01 0.00 77 1018.1
20240222142205 34 226 2.0 3.0 0.00 0.01 0.00 77 1018.0
20240222135704 30 150 2.0 3.0 0.00 0.01 0.00 86 1018.7
20240222135205 29 155 2.0 3.0 0.00 0.01 0.00 89 1018.8
20240222134205 26 150 1.0 3.0 0.00 0.01 0.00 94 1019.0
20240222133705 25 150 0.0 1.0 0.00 0.01 0.00 95 1019.1
20240222133204 24 150 0.0 0.0 0.00 0.01 0.00 94 1019.3
20240222132205 23 150 0.0 1.0 0.00 0.01 0.00 94 1019.2
20240222130204 21 150 0.0 0.0 0.00 0.01 0.00 93 1019.2
20240222125205 21 150 0.0 0.0 0.00 0.01 0.00 93 1019.2
20240222124705 20 150 0.0 0.0 0.00 0.01 0.00 93 1019.3
20240222124204 20 150 0.0 0.0 0.00 0.01 0.00 92 1019.4
20240222123705 20 150 0.0 0.0 0.00 0.01 0.00 92 1019.4
20240222123206 20 150 0.0 0.0 0.00 0.01 0.00 92 1019.5
20240222122705 20 150 0.0 0.0 0.00 0.01 0.00 92 1019.7
20240222122204 19 150 0.0 0.0 0.00 0.01 0.00 92 1020.1
20240222121705 19 150 0.0 0.0 0.00 0.01 0.00 92 1020.2
20240222120705 19 150 0.0 0.0 0.00 0.01 0.00 92 1020.2
20240222115705 19 150 0.0 0.0 0.00 0.01 0.00 92 1020.1
20240222114705 19 150 0.0 0.0 0.00 0.01 0.00 92 1020.3
20240222114204 19 150 0.0 0.0 0.00 0.01 0.00 91 1020.4
20240222112705 20 150 0.0 0.0 0.00 0.01 0.00 91 1020.3
20240222105704 20 150 0.0 0.0 0.00 0.01 0.00 91 1020.9
20240222105204 20 150 0.0 0.0 0.00 0.01 0.00 91 1020.9
20240222104705 20 150 0.0 0.0 0.00 0.01 0.00 91 1021.0
20240222101705 21 150 0.0 0.0 0.00 0.01 0.00 91 1021.2
20240222095206 21 150 0.0 0.0 0.00 0.01 0.00 91 1021.4
20240222093704 21 150 0.0 0.0 0.00 0.01 0.00 91 1021.5
20240222091705 22 150 0.0 0.0 0.00 0.01 0.00 90 1021.7
20240222091204 22 150 0.0 0.0 0.00 0.01 0.00 90 1021.7
20240222090705 22 150 0.0 0.0 0.00 0.01 0.00 90 1021.8
20240222084704 23 150 0.0 0.0 0.00 0.01 0.00 90 1021.9
20240222084205 23 150 0.0 0.0 0.00 0.01 0.00 90 1021.9
20240222083705 23 150 0.0 0.0 0.00 0.01 0.00 90 1022.0
20240222083205 23 150 0.0 0.0 0.00 0.01 0.00 90 1022.1
20240222082705 23 150 0.0 0.0 0.00 0.01 0.00 90 1022.2
20240222082205 23 150 0.0 0.0 0.00 0.01 0.00 90 1022.3
20240222081704 24 150 0.0 0.0 0.00 0.01 0.00 90 1022.4
20240222080704 24 150 0.0 0.0 0.00 0.01 0.00 90 1022.7
20240222080205 24 150 0.0 0.0 0.00 0.01 0.00 90 1022.7
20240222075205 24 150 0.0 0.0 0.00 0.01 0.00 90 1022.8
20240222073704 24 150 0.0 0.0 0.00 0.01 0.00 90 1023.1
20240222073205 24 150 0.0 0.0 0.00 0.01 0.00 90 1023.2
20240222072705 24 150 0.0 0.0 0.00 0.01 0.00 90 1023.4
20240222064705 24 150 0.0 0.0 0.00 0.01 0.00 90 1023.9
20240222064204 24 150 0.0 0.0 0.00 0.01 0.00 90 1024.0
20240222063705 24 150 0.0 0.0 0.00 0.01 0.00 90 1024.0
20240222062204 24 150 0.0 0.0 0.00 0.01 0.00 89 1024.3